sensor_id;sensor_type;location;lat;lon;timestamp;P1;durP1;ratioP1;P2;durP2;ratioP2
70543;SDS011;58097;48.364;-1.224;2022-07-23T00:01:17;12.02;;;4.53;;
70543;SDS011;58097;48.364;-1.224;2022-07-23T00:03:43;7.18;;;4.22;;
70543;SDS011;58097;48.364;-1.224;2022-07-23T00:06:08;6.43;;;3.67;;
70543;SDS011;58097;48.364;-1.224;2022-07-23T00:08:34;9.75;;;4.80;;
70543;SDS011;58097;48.364;-1.224;2022-07-23T00:10:59;10.45;;;4.05;;
70543;SDS011;58097;48.364;-1.224;2022-07-23T00:13:26;12.55;;;4.90;;
70543;SDS011;58097;48.364;-1.224;2022-07-23T00:15:52;13.73;;;5.22;;
70543;SDS011;58097;48.364;-1.224;2022-07-23T00:18:18;12.68;;;4.85;;
70543;SDS011;58097;48.364;-1.224;2022-07-23T00:20:44;15.30;;;4.93;;
70543;SDS011;58097;48.364;-1.224;2022-07-23T00:23:09;12.98;;;5.07;;
70543;SDS011;58097;48.364;-1.224;2022-07-23T00:25:35;7.68;;;4.07;;
70543;SDS011;58097;48.364;-1.224;2022-07-23T00:28:00;13.15;;;5.13;;
70543;SDS011;58097;48.364;-1.224;2022-07-23T00:30:27;10.07;;;4.10;;
70543;SDS011;58097;48.364;-1.224;2022-07-23T00:32:59;19.85;;;5.10;;
70543;SDS011;58097;48.364;-1.224;2022-07-23T00:35:27;6.47;;;4.38;;
70543;SDS011;58097;48.364;-1.224;2022-07-23T00:37:54;11.23;;;4.35;;
70543;SDS011;58097;48.364;-1.224;2022-07-23T00:40:21;23.15;;;5.28;;
70543;SDS011;58097;48.364;-1.224;2022-07-23T00:42:47;12.20;;;5.20;;
70543;SDS011;58097;48.364;-1.224;2022-07-23T00:45:13;11.55;;;4.88;;
70543;SDS011;58097;48.364;-1.224;2022-07-23T00:47:39;11.75;;;4.85;;
70543;SDS011;58097;48.364;-1.224;2022-07-23T00:50:05;14.25;;;5.30;;
70543;SDS011;58097;48.364;-1.224;2022-07-23T00:52:32;15.35;;;4.72;;
70543;SDS011;58097;48.364;-1.224;2022-07-23T00:54:58;11.85;;;5.25;;
70543;SDS011;58097;48.364;-1.224;2022-07-23T00:57:24;15.55;;;5.50;;
70543;SDS011;58097;48.364;-1.224;2022-07-23T00:59:50;11.63;;;4.82;;
70543;SDS011;58097;48.364;-1.224;2022-07-23T01:02:16;11.43;;;4.75;;
70543;SDS011;58097;48.364;-1.224;2022-07-23T01:04:42;15.27;;;5.35;;
70543;SDS011;58097;48.364;-1.224;2022-07-23T01:07:07;12.27;;;5.40;;
70543;SDS011;58097;48.364;-1.224;2022-07-23T01:09:33;9.02;;;5.18;;
70543;SDS011;58097;48.364;-1.224;2022-07-23T01:11:59;14.85;;;5.20;;
70543;SDS011;58097;48.364;-1.224;2022-07-23T01:14:27;10.13;;;4.63;;
70543;SDS011;58097;48.364;-1.224;2022-07-23T01:16:53;14.07;;;5.20;;
70543;SDS011;58097;48.364;-1.224;2022-07-23T01:19:18;15.02;;;5.00;;
70543;SDS011;58097;48.364;-1.224;2022-07-23T01:21:46;10.35;;;4.65;;
70543;SDS011;58097;48.364;-1.224;2022-07-23T01:24:13;9.27;;;4.80;;
70543;SDS011;58097;48.364;-1.224;2022-07-23T01:26:41;11.63;;;4.70;;
70543;SDS011;58097;48.364;-1.224;2022-07-23T01:29:08;12.65;;;5.13;;
70543;SDS011;58097;48.364;-1.224;2022-07-23T01:31:34;13.35;;;5.65;;
70543;SDS011;58097;48.364;-1.224;2022-07-23T01:34:00;12.82;;;5.47;;
70543;SDS011;58097;48.364;-1.224;2022-07-23T01:36:28;9.63;;;4.57;;
70543;SDS011;58097;48.364;-1.224;2022-07-23T01:38:54;16.23;;;5.30;;
70543;SDS011;58097;48.364;-1.224;2022-07-23T01:41:20;9.23;;;5.13;;
70543;SDS011;58097;48.364;-1.224;2022-07-23T01:43:46;9.73;;;5.25;;
70543;SDS011;58097;48.364;-1.224;2022-07-23T01:46:12;10.63;;;5.47;;
70543;SDS011;58097;48.364;-1.224;2022-07-23T01:48:37;12.77;;;5.55;;
70543;SDS011;58097;48.364;-1.224;2022-07-23T01:51:03;10.75;;;5.22;;
70543;SDS011;58097;48.364;-1.224;2022-07-23T01:53:29;9.13;;;5.45;;
70543;SDS011;58097;48.364;-1.224;2022-07-23T01:55:56;10.75;;;5.10;;
70543;SDS011;58097;48.364;-1.224;2022-07-23T01:58:23;12.23;;;5.25;;
70543;SDS011;58097;48.364;-1.224;2022-07-23T02:00:49;12.38;;;5.43;;
70543;SDS011;58097;48.364;-1.224;2022-07-23T02:03:14;8.90;;;5.93;;
70543;SDS011;58097;48.364;-1.224;2022-07-23T02:05:40;11.80;;;5.65;;
70543;SDS011;58097;48.364;-1.224;2022-07-23T02:08:05;11.10;;;5.70;;
70543;SDS011;58097;48.364;-1.224;2022-07-23T02:10:31;12.27;;;5.30;;
70543;SDS011;58097;48.364;-1.224;2022-07-23T02:12:56;13.88;;;6.57;;
70543;SDS011;58097;48.364;-1.224;2022-07-23T02:15:22;11.02;;;6.05;;
70543;SDS011;58097;48.364;-1.224;2022-07-23T02:17:48;8.23;;;5.43;;
70543;SDS011;58097;48.364;-1.224;2022-07-23T02:20:14;9.60;;;5.57;;
70543;SDS011;58097;48.364;-1.224;2022-07-23T02:22:39;9.45;;;5.93;;
70543;SDS011;58097;48.364;-1.224;2022-07-23T02:25:06;9.88;;;6.78;;
70543;SDS011;58097;48.364;-1.224;2022-07-23T02:27:32;11.48;;;6.80;;
70543;SDS011;58097;48.364;-1.224;2022-07-23T02:29:59;14.40;;;6.72;;
70543;SDS011;58097;48.364;-1.224;2022-07-23T02:32:24;12.13;;;6.35;;
70543;SDS011;58097;48.364;-1.224;2022-07-23T02:34:51;10.57;;;6.35;;
70543;SDS011;58097;48.364;-1.224;2022-07-23T02:37:16;11.25;;;6.30;;
70543;SDS011;58097;48.364;-1.224;2022-07-23T02:39:42;8.88;;;6.10;;
70543;SDS011;58097;48.364;-1.224;2022-07-23T02:42:08;8.45;;;6.88;;
70543;SDS011;58097;48.364;-1.224;2022-07-23T02:44:34;6.93;;;6.22;;
70543;SDS011;58097;48.364;-1.224;2022-07-23T02:46:59;8.82;;;5.80;;
70543;SDS011;58097;48.364;-1.224;2022-07-23T02:49:25;7.85;;;5.32;;
70543;SDS011;58097;48.364;-1.224;2022-07-23T02:51:50;10.65;;;6.28;;
70543;SDS011;58097;48.364;-1.224;2022-07-23T02:54:16;8.00;;;5.53;;
70543;SDS011;58097;48.364;-1.224;2022-07-23T02:56:42;11.13;;;6.80;;
70543;SDS011;58097;48.364;-1.224;2022-07-23T02:59:08;9.82;;;5.95;;
70543;SDS011;58097;48.364;-1.224;2022-07-23T03:01:33;9.40;;;5.50;;
70543;SDS011;58097;48.364;-1.224;2022-07-23T03:04:02;7.10;;;5.40;;
70543;SDS011;58097;48.364;-1.224;2022-07-23T03:06:28;9.63;;;5.20;;
70543;SDS011;58097;48.364;-1.224;2022-07-23T03:08:53;6.60;;;5.05;;
70543;SDS011;58097;48.364;-1.224;2022-07-23T03:11:19;10.57;;;5.30;;
70543;SDS011;58097;48.364;-1.224;2022-07-23T03:13:44;9.65;;;5.22;;
70543;SDS011;58097;48.364;-1.224;2022-07-23T03:16:10;9.48;;;5.53;;
70543;SDS011;58097;48.364;-1.224;2022-07-23T03:18:36;8.88;;;5.43;;
70543;SDS011;58097;48.364;-1.224;2022-07-23T03:21:02;10.65;;;5.35;;
70543;SDS011;58097;48.364;-1.224;2022-07-23T03:23:29;11.80;;;5.50;;
70543;SDS011;58097;48.364;-1.224;2022-07-23T03:25:54;11.32;;;5.53;;
70543;SDS011;58097;48.364;-1.224;2022-07-23T03:28:20;9.02;;;5.20;;
70543;SDS011;58097;48.364;-1.224;2022-07-23T03:30:46;9.60;;;5.10;;
70543;SDS011;58097;48.364;-1.224;2022-07-23T03:33:12;9.10;;;5.32;;
70543;SDS011;58097;48.364;-1.224;2022-07-23T03:35:39;12.48;;;5.65;;
70543;SDS011;58097;48.364;-1.224;2022-07-23T03:38:05;9.40;;;5.10;;
70543;SDS011;58097;48.364;-1.224;2022-07-23T03:40:31;8.48;;;5.10;;
70543;SDS011;58097;48.364;-1.224;2022-07-23T03:42:56;9.98;;;5.55;;
70543;SDS011;58097;48.364;-1.224;2022-07-23T03:45:22;11.00;;;5.80;;
70543;SDS011;58097;48.364;-1.224;2022-07-23T03:47:47;9.18;;;5.63;;
70543;SDS011;58097;48.364;-1.224;2022-07-23T03:50:13;12.10;;;5.38;;
70543;SDS011;58097;48.364;-1.224;2022-07-23T03:52:39;6.97;;;5.13;;
70543;SDS011;58097;48.364;-1.224;2022-07-23T03:55:08;9.23;;;5.90;;
70543;SDS011;58097;48.364;-1.224;2022-07-23T03:57:34;9.88;;;5.00;;
70543;SDS011;58097;48.364;-1.224;2022-07-23T03:59:59;7.97;;;5.18;;
70543;SDS011;58097;48.364;-1.224;2022-07-23T04:02:25;8.60;;;5.25;;
70543;SDS011;58097;48.364;-1.224;2022-07-23T04:04:51;10.07;;;5.13;;
70543;SDS011;58097;48.364;-1.224;2022-07-23T04:07:16;10.05;;;5.05;;
70543;SDS011;58097;48.364;-1.224;2022-07-23T04:09:46;8.98;;;4.88;;
70543;SDS011;58097;48.364;-1.224;2022-07-23T04:12:12;6.70;;;5.00;;
70543;SDS011;58097;48.364;-1.224;2022-07-23T04:14:38;10.00;;;4.72;;
70543;SDS011;58097;48.364;-1.224;2022-07-23T04:17:04;9.32;;;4.90;;
70543;SDS011;58097;48.364;-1.224;2022-07-23T04:19:29;9.30;;;4.50;;
70543;SDS011;58097;48.364;-1.224;2022-07-23T04:21:55;10.15;;;4.88;;
70543;SDS011;58097;48.364;-1.224;2022-07-23T04:24:22;7.32;;;5.00;;
70543;SDS011;58097;48.364;-1.224;2022-07-23T04:26:47;12.45;;;5.30;;
70543;SDS011;58097;48.364;-1.224;2022-07-23T04:29:13;9.77;;;4.95;;
70543;SDS011;58097;48.364;-1.224;2022-07-23T04:31:38;10.32;;;5.03;;
70543;SDS011;58097;48.364;-1.224;2022-07-23T04:34:04;8.73;;;4.75;;
70543;SDS011;58097;48.364;-1.224;2022-07-23T04:36:30;11.40;;;4.32;;
70543;SDS011;58097;48.364;-1.224;2022-07-23T04:38:55;9.07;;;4.90;;
70543;SDS011;58097;48.364;-1.224;2022-07-23T04:41:21;8.15;;;4.55;;
70543;SDS011;58097;48.364;-1.224;2022-07-23T04:43:47;9.43;;;4.38;;
70543;SDS011;58097;48.364;-1.224;2022-07-23T04:46:12;6.63;;;4.60;;
70543;SDS011;58097;48.364;-1.224;2022-07-23T04:48:38;8.90;;;4.30;;
70543;SDS011;58097;48.364;-1.224;2022-07-23T04:51:04;6.75;;;4.47;;
70543;SDS011;58097;48.364;-1.224;2022-07-23T04:53:30;8.10;;;4.32;;
70543;SDS011;58097;48.364;-1.224;2022-07-23T04:55:56;12.20;;;4.97;;
70543;SDS011;58097;48.364;-1.224;2022-07-23T04:58:22;6.88;;;4.30;;
70543;SDS011;58097;48.364;-1.224;2022-07-23T05:00:48;6.88;;;4.47;;
70543;SDS011;58097;48.364;-1.224;2022-07-23T05:03:13;7.97;;;4.68;;
70543;SDS011;58097;48.364;-1.224;2022-07-23T05:05:39;7.50;;;5.00;;
70543;SDS011;58097;48.364;-1.224;2022-07-23T05:08:05;11.45;;;5.47;;
70543;SDS011;58097;48.364;-1.224;2022-07-23T05:10:30;12.63;;;5.00;;
70543;SDS011;58097;48.364;-1.224;2022-07-23T05:12:56;12.75;;;5.28;;
70543;SDS011;58097;48.364;-1.224;2022-07-23T05:15:21;8.05;;;5.35;;
70543;SDS011;58097;48.364;-1.224;2022-07-23T05:17:47;9.60;;;5.47;;
70543;SDS011;58097;48.364;-1.224;2022-07-23T05:20:13;10.30;;;6.10;;
70543;SDS011;58097;48.364;-1.224;2022-07-23T05:22:38;11.55;;;5.72;;
70543;SDS011;58097;48.364;-1.224;2022-07-23T05:25:04;8.23;;;6.18;;
70543;SDS011;58097;48.364;-1.224;2022-07-23T05:27:30;10.15;;;5.50;;
70543;SDS011;58097;48.364;-1.224;2022-07-23T05:29:56;10.07;;;5.40;;
70543;SDS011;58097;48.364;-1.224;2022-07-23T05:32:22;8.25;;;5.43;;
70543;SDS011;58097;48.364;-1.224;2022-07-23T05:34:47;8.73;;;5.03;;
70543;SDS011;58097;48.364;-1.224;2022-07-23T05:37:13;11.07;;;5.95;;
70543;SDS011;58097;48.364;-1.224;2022-07-23T05:39:38;8.57;;;5.00;;
70543;SDS011;58097;48.364;-1.224;2022-07-23T05:42:04;8.82;;;5.18;;
70543;SDS011;58097;48.364;-1.224;2022-07-23T05:44:30;7.60;;;4.95;;
70543;SDS011;58097;48.364;-1.224;2022-07-23T05:46:55;8.32;;;5.45;;
70543;SDS011;58097;48.364;-1.224;2022-07-23T05:49:21;8.10;;;4.82;;
70543;SDS011;58097;48.364;-1.224;2022-07-23T05:51:46;6.68;;;4.72;;
70543;SDS011;58097;48.364;-1.224;2022-07-23T05:54:12;7.93;;;5.05;;
70543;SDS011;58097;48.364;-1.224;2022-07-23T05:56:37;9.20;;;5.07;;
70543;SDS011;58097;48.364;-1.224;2022-07-23T05:59:03;11.68;;;5.75;;
70543;SDS011;58097;48.364;-1.224;2022-07-23T06:01:28;9.25;;;5.40;;
70543;SDS011;58097;48.364;-1.224;2022-07-23T06:03:54;11.27;;;5.82;;
70543;SDS011;58097;48.364;-1.224;2022-07-23T06:06:20;9.65;;;5.00;;
70543;SDS011;58097;48.364;-1.224;2022-07-23T06:08:45;7.22;;;4.72;;
70543;SDS011;58097;48.364;-1.224;2022-07-23T06:11:11;10.30;;;4.95;;
70543;SDS011;58097;48.364;-1.224;2022-07-23T06:13:36;10.27;;;4.95;;
70543;SDS011;58097;48.364;-1.224;2022-07-23T06:16:02;11.85;;;5.85;;
70543;SDS011;58097;48.364;-1.224;2022-07-23T06:18:27;9.13;;;5.07;;
70543;SDS011;58097;48.364;-1.224;2022-07-23T06:20:53;9.32;;;5.30;;
70543;SDS011;58097;48.364;-1.224;2022-07-23T06:23:19;9.85;;;4.70;;
70543;SDS011;58097;48.364;-1.224;2022-07-23T06:25:45;6.82;;;4.95;;
70543;SDS011;58097;48.364;-1.224;2022-07-23T06:28:10;7.72;;;4.35;;
70543;SDS011;58097;48.364;-1.224;2022-07-23T06:30:36;11.68;;;5.55;;
70543;SDS011;58097;48.364;-1.224;2022-07-23T06:33:01;11.25;;;5.43;;
70543;SDS011;58097;48.364;-1.224;2022-07-23T06:35:27;10.93;;;5.30;;
70543;SDS011;58097;48.364;-1.224;2022-07-23T06:37:52;7.95;;;5.05;;
70543;SDS011;58097;48.364;-1.224;2022-07-23T06:40:18;11.00;;;5.45;;
70543;SDS011;58097;48.364;-1.224;2022-07-23T06:42:43;8.23;;;5.55;;
70543;SDS011;58097;48.364;-1.224;2022-07-23T06:45:09;10.38;;;5.15;;
70543;SDS011;58097;48.364;-1.224;2022-07-23T06:47:35;11.88;;;5.07;;
70543;SDS011;58097;48.364;-1.224;2022-07-23T06:50:00;10.27;;;5.75;;
70543;SDS011;58097;48.364;-1.224;2022-07-23T06:52:26;9.05;;;5.15;;
70543;SDS011;58097;48.364;-1.224;2022-07-23T06:54:52;11.45;;;5.72;;
70543;SDS011;58097;48.364;-1.224;2022-07-23T06:57:17;8.93;;;4.78;;
70543;SDS011;58097;48.364;-1.224;2022-07-23T06:59:43;10.05;;;4.85;;
70543;SDS011;58097;48.364;-1.224;2022-07-23T07:02:09;7.72;;;4.57;;
70543;SDS011;58097;48.364;-1.224;2022-07-23T07:04:34;12.25;;;5.78;;
70543;SDS011;58097;48.364;-1.224;2022-07-23T07:07:00;11.05;;;5.63;;
70543;SDS011;58097;48.364;-1.224;2022-07-23T07:09:26;11.63;;;5.93;;
70543;SDS011;58097;48.364;-1.224;2022-07-23T07:11:51;11.05;;;6.13;;
70543;SDS011;58097;48.364;-1.224;2022-07-23T07:14:17;10.60;;;6.13;;
70543;SDS011;58097;48.364;-1.224;2022-07-23T07:16:43;11.40;;;6.45;;
70543;SDS011;58097;48.364;-1.224;2022-07-23T07:19:08;16.40;;;7.25;;
70543;SDS011;58097;48.364;-1.224;2022-07-23T07:21:34;10.55;;;5.88;;
70543;SDS011;58097;48.364;-1.224;2022-07-23T07:24:00;6.45;;;5.63;;
70543;SDS011;58097;48.364;-1.224;2022-07-23T07:26:27;14.55;;;6.47;;
70543;SDS011;58097;48.364;-1.224;2022-07-23T07:28:52;16.70;;;8.05;;
70543;SDS011;58097;48.364;-1.224;2022-07-23T07:31:18;11.07;;;6.97;;
70543;SDS011;58097;48.364;-1.224;2022-07-23T07:33:44;13.70;;;6.65;;
70543;SDS011;58097;48.364;-1.224;2022-07-23T07:36:09;14.23;;;7.65;;
70543;SDS011;58097;48.364;-1.224;2022-07-23T07:38:35;11.73;;;7.18;;
70543;SDS011;58097;48.364;-1.224;2022-07-23T07:41:00;13.07;;;6.97;;
70543;SDS011;58097;48.364;-1.224;2022-07-23T07:43:26;9.20;;;6.82;;
70543;SDS011;58097;48.364;-1.224;2022-07-23T07:45:51;13.57;;;8.13;;
70543;SDS011;58097;48.364;-1.224;2022-07-23T07:48:17;19.33;;;9.15;;
70543;SDS011;58097;48.364;-1.224;2022-07-23T07:50:42;14.15;;;7.78;;
70543;SDS011;58097;48.364;-1.224;2022-07-23T07:53:08;14.05;;;7.35;;
70543;SDS011;58097;48.364;-1.224;2022-07-23T07:55:34;17.48;;;8.75;;
70543;SDS011;58097;48.364;-1.224;2022-07-23T07:58:00;16.95;;;8.18;;
70543;SDS011;58097;48.364;-1.224;2022-07-23T08:00:25;12.02;;;8.00;;
70543;SDS011;58097;48.364;-1.224;2022-07-23T08:02:51;13.02;;;8.40;;
70543;SDS011;58097;48.364;-1.224;2022-07-23T08:05:19;17.10;;;9.32;;
70543;SDS011;58097;48.364;-1.224;2022-07-23T08:07:47;12.13;;;8.18;;
70543;SDS011;58097;48.364;-1.224;2022-07-23T08:10:13;16.38;;;9.20;;
70543;SDS011;58097;48.364;-1.224;2022-07-23T08:15:06;15.13;;;9.57;;
70543;SDS011;58097;48.364;-1.224;2022-07-23T08:17:32;14.25;;;9.02;;
70543;SDS011;58097;48.364;-1.224;2022-07-23T08:19:57;17.77;;;9.73;;
70543;SDS011;58097;48.364;-1.224;2022-07-23T08:22:23;14.77;;;9.20;;
70543;SDS011;58097;48.364;-1.224;2022-07-23T08:24:48;12.15;;;8.77;;
70543;SDS011;58097;48.364;-1.224;2022-07-23T08:27:14;14.43;;;9.77;;
70543;SDS011;58097;48.364;-1.224;2022-07-23T08:29:39;17.85;;;10.18;;
70543;SDS011;58097;48.364;-1.224;2022-07-23T08:32:05;17.25;;;9.50;;
70543;SDS011;58097;48.364;-1.224;2022-07-23T08:34:31;20.95;;;10.73;;
70543;SDS011;58097;48.364;-1.224;2022-07-23T08:36:56;19.17;;;12.07;;
70543;SDS011;58097;48.364;-1.224;2022-07-23T08:39:22;19.77;;;12.13;;
70543;SDS011;58097;48.364;-1.224;2022-07-23T08:41:48;15.50;;;9.57;;
70543;SDS011;58097;48.364;-1.224;2022-07-23T08:44:15;22.67;;;9.85;;
70543;SDS011;58097;48.364;-1.224;2022-07-23T08:46:41;15.55;;;10.13;;
70543;SDS011;58097;48.364;-1.224;2022-07-23T08:49:08;18.73;;;9.27;;
70543;SDS011;58097;48.364;-1.224;2022-07-23T08:51:35;18.98;;;9.88;;
70543;SDS011;58097;48.364;-1.224;2022-07-23T08:54:00;17.27;;;9.02;;
70543;SDS011;58097;48.364;-1.224;2022-07-23T08:56:26;17.58;;;11.65;;
70543;SDS011;58097;48.364;-1.224;2022-07-23T08:58:53;21.33;;;11.20;;
70543;SDS011;58097;48.364;-1.224;2022-07-23T09:01:19;16.70;;;9.88;;
70543;SDS011;58097;48.364;-1.224;2022-07-23T09:03:45;19.60;;;9.90;;
70543;SDS011;58097;48.364;-1.224;2022-07-23T09:06:11;17.85;;;10.43;;
70543;SDS011;58097;48.364;-1.224;2022-07-23T09:08:40;19.92;;;9.60;;
70543;SDS011;58097;48.364;-1.224;2022-07-23T09:11:07;20.15;;;9.40;;
70543;SDS011;58097;48.364;-1.224;2022-07-23T09:13:42;16.90;;;8.65;;
70543;SDS011;58097;48.364;-1.224;2022-07-23T09:16:13;12.32;;;8.05;;
70543;SDS011;58097;48.364;-1.224;2022-07-23T09:18:52;14.77;;;7.70;;
70543;SDS011;58097;48.364;-1.224;2022-07-23T09:23:56;16.73;;;7.78;;
70543;SDS011;58097;48.364;-1.224;2022-07-23T09:26:30;15.05;;;7.45;;
70543;SDS011;58097;48.364;-1.224;2022-07-23T09:31:44;16.85;;;8.15;;
70543;SDS011;58097;48.364;-1.224;2022-07-23T09:34:14;15.40;;;7.07;;
70543;SDS011;58097;48.364;-1.224;2022-07-23T09:36:41;13.10;;;7.60;;
70543;SDS011;58097;48.364;-1.224;2022-07-23T09:39:08;12.27;;;6.93;;
70543;SDS011;58097;48.364;-1.224;2022-07-23T09:41:35;17.80;;;7.10;;
70543;SDS011;58097;48.364;-1.224;2022-07-23T09:46:48;15.63;;;5.45;;
70543;SDS011;58097;48.364;-1.224;2022-07-23T09:49:20;10.55;;;6.38;;
70543;SDS011;58097;48.364;-1.224;2022-07-23T09:51:48;13.80;;;6.65;;
70543;SDS011;58097;48.364;-1.224;2022-07-23T09:54:22;14.00;;;5.77;;
70543;SDS011;58097;48.364;-1.224;2022-07-23T09:56:54;14.35;;;6.85;;
70543;SDS011;58097;48.364;-1.224;2022-07-23T09:59:22;16.10;;;7.45;;
70543;SDS011;58097;48.364;-1.224;2022-07-23T10:01:51;10.18;;;5.95;;
70543;SDS011;58097;48.364;-1.224;2022-07-23T10:04:20;12.25;;;5.88;;
70543;SDS011;58097;48.364;-1.224;2022-07-23T10:06:48;9.73;;;5.85;;
70543;SDS011;58097;48.364;-1.224;2022-07-23T10:09:20;8.25;;;5.03;;
70543;SDS011;58097;48.364;-1.224;2022-07-23T10:11:49;12.02;;;6.18;;
70543;SDS011;58097;48.364;-1.224;2022-07-23T10:14:15;11.90;;;5.03;;
70543;SDS011;58097;48.364;-1.224;2022-07-23T10:16:42;11.70;;;5.00;;
70543;SDS011;58097;48.364;-1.224;2022-07-23T10:19:08;14.07;;;5.65;;
70543;SDS011;58097;48.364;-1.224;2022-07-23T10:21:40;12.23;;;6.20;;
70543;SDS011;58097;48.364;-1.224;2022-07-23T10:24:21;17.83;;;6.47;;
70543;SDS011;58097;48.364;-1.224;2022-07-23T10:27:20;15.52;;;6.72;;
70543;SDS011;58097;48.364;-1.224;2022-07-23T10:41:30;9.63;;;5.72;;
70543;SDS011;58097;48.364;-1.224;2022-07-23T10:44:18;13.15;;;6.75;;
70543;SDS011;58097;48.364;-1.224;2022-07-23T10:49:53;10.18;;;5.20;;
70543;SDS011;58097;48.364;-1.224;2022-07-23T10:52:39;10.13;;;5.18;;
70543;SDS011;58097;48.364;-1.224;2022-07-23T10:58:01;9.35;;;5.35;;
70543;SDS011;58097;48.364;-1.224;2022-07-23T11:00:28;9.38;;;4.85;;
70543;SDS011;58097;48.364;-1.224;2022-07-23T11:04:47;7.65;;;4.57;;
70543;SDS011;58097;48.364;-1.224;2022-07-23T11:07:15;12.85;;;5.35;;
70543;SDS011;58097;48.364;-1.224;2022-07-23T11:09:41;11.48;;;5.22;;
70543;SDS011;58097;48.364;-1.224;2022-07-23T11:15:05;10.13;;;4.82;;
70543;SDS011;58097;48.364;-1.224;2022-07-23T11:20:21;10.82;;;5.35;;
70543;SDS011;58097;48.364;-1.224;2022-07-23T11:22:49;14.30;;;5.60;;
70543;SDS011;58097;48.364;-1.224;2022-07-23T11:27:48;7.25;;;4.45;;
70543;SDS011;58097;48.364;-1.224;2022-07-23T11:35:48;6.85;;;4.10;;
70543;SDS011;58097;48.364;-1.224;2022-07-23T11:38:19;9.75;;;4.30;;
70543;SDS011;58097;48.364;-1.224;2022-07-23T11:40:50;8.30;;;4.68;;
70543;SDS011;58097;48.364;-1.224;2022-07-23T11:43:19;6.68;;;4.43;;
70543;SDS011;58097;48.364;-1.224;2022-07-23T11:45:46;6.55;;;3.40;;
70543;SDS011;58097;48.364;-1.224;2022-07-23T11:48:17;10.55;;;4.18;;
70543;SDS011;58097;48.364;-1.224;2022-07-23T11:50:50;7.40;;;4.20;;
70543;SDS011;58097;48.364;-1.224;2022-07-23T11:53:21;8.73;;;4.63;;
70543;SDS011;58097;48.364;-1.224;2022-07-23T11:55:48;11.90;;;4.55;;
70543;SDS011;58097;48.364;-1.224;2022-07-23T11:58:13;11.32;;;4.10;;
70543;SDS011;58097;48.364;-1.224;2022-07-23T12:00:40;6.80;;;3.95;;
70543;SDS011;58097;48.364;-1.224;2022-07-23T12:03:06;9.73;;;4.53;;
70543;SDS011;58097;48.364;-1.224;2022-07-23T12:05:33;8.02;;;4.10;;
70543;SDS011;58097;48.364;-1.224;2022-07-23T12:08:02;9.93;;;3.80;;
70543;SDS011;58097;48.364;-1.224;2022-07-23T12:10:34;9.32;;;4.15;;
70543;SDS011;58097;48.364;-1.224;2022-07-23T12:13:06;10.88;;;4.47;;
70543;SDS011;58097;48.364;-1.224;2022-07-23T12:15:40;8.93;;;4.13;;
70543;SDS011;58097;48.364;-1.224;2022-07-23T12:18:08;9.10;;;4.18;;
70543;SDS011;58097;48.364;-1.224;2022-07-23T12:20:36;6.65;;;3.10;;
70543;SDS011;58097;48.364;-1.224;2022-07-23T12:23:05;10.43;;;3.72;;
70543;SDS011;58097;48.364;-1.224;2022-07-23T12:25:33;6.35;;;3.42;;
70543;SDS011;58097;48.364;-1.224;2022-07-23T12:28:05;5.22;;;2.85;;
70543;SDS011;58097;48.364;-1.224;2022-07-23T12:30:40;7.50;;;3.05;;
70543;SDS011;58097;48.364;-1.224;2022-07-23T12:33:08;6.88;;;3.22;;
70543;SDS011;58097;48.364;-1.224;2022-07-23T12:35:40;6.13;;;2.97;;
70543;SDS011;58097;48.364;-1.224;2022-07-23T12:38:13;6.38;;;3.00;;
70543;SDS011;58097;48.364;-1.224;2022-07-23T12:40:42;6.97;;;3.13;;
70543;SDS011;58097;48.364;-1.224;2022-07-23T12:43:09;6.65;;;3.25;;
70543;SDS011;58097;48.364;-1.224;2022-07-23T12:45:44;4.60;;;2.63;;
70543;SDS011;58097;48.364;-1.224;2022-07-23T12:48:19;6.50;;;2.90;;
70543;SDS011;58097;48.364;-1.224;2022-07-23T12:50:51;5.72;;;2.70;;
70543;SDS011;58097;48.364;-1.224;2022-07-23T12:53:28;7.53;;;3.05;;
70543;SDS011;58097;48.364;-1.224;2022-07-23T12:55:58;6.40;;;2.75;;
70543;SDS011;58097;48.364;-1.224;2022-07-23T12:58:26;7.43;;;2.80;;
70543;SDS011;58097;48.364;-1.224;2022-07-23T13:00:56;6.75;;;2.83;;
70543;SDS011;58097;48.364;-1.224;2022-07-23T13:06:36;6.10;;;2.83;;
70543;SDS011;58097;48.364;-1.224;2022-07-23T13:09:05;9.10;;;3.33;;
70543;SDS011;58097;48.364;-1.224;2022-07-23T13:11:33;5.28;;;2.72;;
70543;SDS011;58097;48.364;-1.224;2022-07-23T13:13:59;4.45;;;2.58;;
70543;SDS011;58097;48.364;-1.224;2022-07-23T13:16:27;6.20;;;2.55;;
70543;SDS011;58097;48.364;-1.224;2022-07-23T13:18:54;4.45;;;2.80;;
70543;SDS011;58097;48.364;-1.224;2022-07-23T13:21:21;5.03;;;2.30;;
70543;SDS011;58097;48.364;-1.224;2022-07-23T13:23:47;4.05;;;2.22;;
70543;SDS011;58097;48.364;-1.224;2022-07-23T13:26:12;3.83;;;2.80;;
70543;SDS011;58097;48.364;-1.224;2022-07-23T13:28:38;4.65;;;2.58;;
70543;SDS011;58097;48.364;-1.224;2022-07-23T13:31:03;5.10;;;2.83;;
70543;SDS011;58097;48.364;-1.224;2022-07-23T13:33:29;5.03;;;3.00;;
70543;SDS011;58097;48.364;-1.224;2022-07-23T13:35:55;4.55;;;2.70;;
70543;SDS011;58097;48.364;-1.224;2022-07-23T13:38:21;7.55;;;2.53;;
70543;SDS011;58097;48.364;-1.224;2022-07-23T13:40:47;6.25;;;2.45;;
70543;SDS011;58097;48.364;-1.224;2022-07-23T13:43:15;6.13;;;2.60;;
70543;SDS011;58097;48.364;-1.224;2022-07-23T13:45:42;4.68;;;2.35;;
70543;SDS011;58097;48.364;-1.224;2022-07-23T13:48:10;6.07;;;2.47;;
70543;SDS011;58097;48.364;-1.224;2022-07-23T13:50:36;4.25;;;2.33;;
70543;SDS011;58097;48.364;-1.224;2022-07-23T13:53:03;4.75;;;2.70;;
70543;SDS011;58097;48.364;-1.224;2022-07-23T13:55:31;5.82;;;2.70;;
70543;SDS011;58097;48.364;-1.224;2022-07-23T13:57:57;3.55;;;2.70;;
70543;SDS011;58097;48.364;-1.224;2022-07-23T14:00:24;6.30;;;2.50;;
70543;SDS011;58097;48.364;-1.224;2022-07-23T14:02:50;3.88;;;2.47;;
70543;SDS011;58097;48.364;-1.224;2022-07-23T14:05:15;2.97;;;2.25;;
70543;SDS011;58097;48.364;-1.224;2022-07-23T14:07:41;5.00;;;2.40;;
70543;SDS011;58097;48.364;-1.224;2022-07-23T14:10:09;4.80;;;2.42;;
70543;SDS011;58097;48.364;-1.224;2022-07-23T14:12:35;5.85;;;2.78;;
70543;SDS011;58097;48.364;-1.224;2022-07-23T14:15:02;5.38;;;2.50;;
70543;SDS011;58097;48.364;-1.224;2022-07-23T14:17:29;5.88;;;2.65;;
70543;SDS011;58097;48.364;-1.224;2022-07-23T14:19:55;5.75;;;2.50;;
70543;SDS011;58097;48.364;-1.224;2022-07-23T14:22:21;3.78;;;2.28;;
70543;SDS011;58097;48.364;-1.224;2022-07-23T14:24:47;2.95;;;2.15;;
70543;SDS011;58097;48.364;-1.224;2022-07-23T14:27:12;3.60;;;2.35;;
70543;SDS011;58097;48.364;-1.224;2022-07-23T14:29:38;3.60;;;2.15;;
70543;SDS011;58097;48.364;-1.224;2022-07-23T14:32:04;4.80;;;2.05;;
70543;SDS011;58097;48.364;-1.224;2022-07-23T14:34:29;4.38;;;1.88;;
70543;SDS011;58097;48.364;-1.224;2022-07-23T14:36:55;4.88;;;2.35;;
70543;SDS011;58097;48.364;-1.224;2022-07-23T14:39:21;3.92;;;2.00;;
70543;SDS011;58097;48.364;-1.224;2022-07-23T14:41:46;3.97;;;2.20;;
70543;SDS011;58097;48.364;-1.224;2022-07-23T14:44:12;4.25;;;2.17;;
70543;SDS011;58097;48.364;-1.224;2022-07-23T14:46:37;2.42;;;1.88;;
70543;SDS011;58097;48.364;-1.224;2022-07-23T14:49:03;2.70;;;1.75;;
70543;SDS011;58097;48.364;-1.224;2022-07-23T14:51:29;4.13;;;1.70;;
70543;SDS011;58097;48.364;-1.224;2022-07-23T14:53:55;3.97;;;2.00;;
70543;SDS011;58097;48.364;-1.224;2022-07-23T14:56:21;3.80;;;2.03;;
70543;SDS011;58097;48.364;-1.224;2022-07-23T14:58:47;2.92;;;1.90;;
70543;SDS011;58097;48.364;-1.224;2022-07-23T15:01:12;2.95;;;1.73;;
70543;SDS011;58097;48.364;-1.224;2022-07-23T15:03:38;4.95;;;1.85;;
70543;SDS011;58097;48.364;-1.224;2022-07-23T15:06:04;3.25;;;1.80;;
70543;SDS011;58097;48.364;-1.224;2022-07-23T15:08:30;3.83;;;1.70;;
70543;SDS011;58097;48.364;-1.224;2022-07-23T15:10:55;3.45;;;1.92;;
70543;SDS011;58097;48.364;-1.224;2022-07-23T15:13:21;4.28;;;1.73;;